createdAt,value
2024-03-12T00:00:51.502Z,62.79
2024-03-12T00:01:51.444Z,63.70
2024-03-12T00:02:51.320Z,70.86
2024-03-12T00:03:51.337Z,58.95
2024-03-12T00:04:51.305Z,63.84
2024-03-12T00:05:51.296Z,68.50
2024-03-12T00:06:51.393Z,68.30
2024-03-12T00:07:51.285Z,54.83
2024-03-12T00:08:51.244Z,65.96
2024-03-12T00:09:51.284Z,67.84
2024-03-12T00:10:51.274Z,68.24
2024-03-12T00:11:51.237Z,63.53
2024-03-12T00:12:51.312Z,71.66
2024-03-12T00:13:51.224Z,65.76
2024-03-12T00:14:51.183Z,65.69
2024-03-12T00:15:51.325Z,64.00
2024-03-12T00:16:51.181Z,67.16
2024-03-12T00:17:51.248Z,62.01
2024-03-12T00:18:51.250Z,68.94
2024-03-12T00:19:51.139Z,62.84
2024-03-12T00:20:51.122Z,69.80
2024-03-12T00:21:51.229Z,73.68
2024-03-12T00:22:51.098Z,71.85
2024-03-12T00:23:51.117Z,71.79
2024-03-12T00:24:51.182Z,71.62
2024-03-12T00:25:51.069Z,69.14
2024-03-12T00:26:51.084Z,66.25
2024-03-12T00:27:51.080Z,72.61
2024-03-12T00:28:51.044Z,70.88
2024-03-12T00:29:51.054Z,73.94
2024-03-12T00:30:51.094Z,73.66
2024-03-12T00:31:51.051Z,65.26
2024-03-12T00:32:51.024Z,70.50
2024-03-12T00:33:51.040Z,72.72
2024-03-12T00:34:51.040Z,64.42
2024-03-12T00:35:50.986Z,69.60
2024-03-12T00:36:51.021Z,65.55
2024-03-12T00:37:50.955Z,69.25
2024-03-12T00:38:50.933Z,70.81
2024-03-12T00:39:50.967Z,71.34
2024-03-12T00:40:51.032Z,68.12
2024-03-12T00:41:51.001Z,71.71
2024-03-12T00:42:50.938Z,66.25
2024-03-12T00:43:50.933Z,68.81
2024-03-12T00:44:50.897Z,71.43
2024-03-12T00:45:50.959Z,67.02
2024-03-12T00:46:50.859Z,57.30
2024-03-12T00:47:50.918Z,64.49
2024-03-12T00:48:50.889Z,64.16
2024-03-12T00:49:50.852Z,58.67
2024-03-12T00:50:50.856Z,66.24
2024-03-12T00:51:50.864Z,67.90
2024-03-12T00:52:51.773Z,67.11
2024-03-12T00:53:50.783Z,65.55
2024-03-12T00:54:50.786Z,69.29
2024-03-12T00:55:50.868Z,73.00
2024-03-12T00:56:50.832Z,70.28
2024-03-12T00:57:50.780Z,60.40
2024-03-12T00:58:50.782Z,69.91
2024-03-12T00:59:50.725Z,60.87
2024-03-12T01:00:51.176Z,62.37
2024-03-12T01:01:50.714Z,63.43
2024-03-12T01:02:50.842Z,61.23
2024-03-12T01:03:50.737Z,72.76
2024-03-12T01:04:50.635Z,68.78
2024-03-12T01:05:50.642Z,65.08
2024-03-12T01:06:50.663Z,62.45
2024-03-12T01:07:50.625Z,60.12
2024-03-12T01:08:50.628Z,63.73
2024-03-12T01:09:50.623Z,65.50
2024-03-12T01:10:50.585Z,59.80
2024-03-12T01:11:50.595Z,70.69
2024-03-12T01:12:50.614Z,54.11
2024-03-12T01:13:50.558Z,58.10
2024-03-12T01:14:51.549Z,55.41
2024-03-12T01:15:50.581Z,66.84
2024-03-12T01:16:50.514Z,57.27
2024-03-12T01:17:50.583Z,67.52
2024-03-12T01:18:50.501Z,63.41
2024-03-12T01:19:50.523Z,58.59
2024-03-12T01:20:50.532Z,70.71
2024-03-12T01:21:50.567Z,60.00
2024-03-12T01:22:50.486Z,61.62
2024-03-12T01:23:51.074Z,60.11
2024-03-12T01:24:50.508Z,61.83
2024-03-12T01:25:50.451Z,69.16
2024-03-12T01:26:50.431Z,68.96
2024-03-12T01:27:50.532Z,65.55
2024-03-12T01:28:50.410Z,54.83
2024-03-12T01:29:50.406Z,63.98
2024-03-12T01:30:50.436Z,70.20
2024-03-12T01:31:50.402Z,54.97
2024-03-12T01:32:50.393Z,69.65
2024-03-12T01:33:50.403Z,74.91
2024-03-12T01:34:50.380Z,68.23
2024-03-12T01:35:50.370Z,68.19
2024-03-12T01:36:50.388Z,72.16
2024-03-12T01:37:50.323Z,72.55
2024-03-12T01:38:50.291Z,60.79
2024-03-12T01:39:50.308Z,53.24
2024-03-12T01:40:50.279Z,64.35
2024-03-12T01:41:50.226Z,56.42
2024-03-12T01:42:51.359Z,67.33
2024-03-12T01:43:50.223Z,69.40
2024-03-12T01:44:50.225Z,69.69
2024-03-12T01:45:50.263Z,58.64
2024-03-12T01:46:50.278Z,69.69
2024-03-12T01:47:50.266Z,65.34
2024-03-12T01:48:50.206Z,70.52
2024-03-12T01:49:50.157Z,71.86
2024-03-12T01:50:50.174Z,72.47
2024-03-12T01:51:50.237Z,67.71
2024-03-12T01:52:50.159Z,69.37
2024-03-12T01:53:50.165Z,62.94
2024-03-12T01:54:50.191Z,55.40
2024-03-12T01:55:50.115Z,60.71
2024-03-12T01:56:50.094Z,57.29
2024-03-12T01:57:50.119Z,53.91
2024-03-12T01:58:50.075Z,71.49
2024-03-12T01:59:50.042Z,73.57
2024-03-12T02:00:51.144Z,70.35
2024-03-12T02:01:50.088Z,57.26
2024-03-12T02:02:50.045Z,68.14
2024-03-12T02:03:50.092Z,51.72
2024-03-12T02:04:49.988Z,67.71
2024-03-12T02:05:50.012Z,66.65
2024-03-12T02:06:50.066Z,55.79
2024-03-12T02:07:49.969Z,71.70
2024-03-12T02:08:49.962Z,69.52
2024-03-12T02:09:50.010Z,70.96
2024-03-12T02:10:49.957Z,70.09
2024-03-12T02:11:49.934Z,68.23
2024-03-12T02:12:50.249Z,69.12
2024-03-12T02:13:50.915Z,66.72
2024-03-12T02:14:49.936Z,70.95
2024-03-12T02:15:49.974Z,68.33
2024-03-12T02:16:49.896Z,67.34
2024-03-12T02:17:49.922Z,59.68
2024-03-12T02:18:49.886Z,72.37
2024-03-12T02:19:49.869Z,70.38
2024-03-12T02:20:49.861Z,74.20
2024-03-12T02:21:49.884Z,73.77
2024-03-12T02:22:49.842Z,64.13
2024-03-12T02:23:49.815Z,71.74
2024-03-12T02:24:49.814Z,70.61
2024-03-12T02:25:49.800Z,67.52
2024-03-12T02:26:49.781Z,68.57
2024-03-12T02:27:49.844Z,62.93
2024-03-12T02:28:49.765Z,68.74
2024-03-12T02:29:49.747Z,62.05
2024-03-12T02:30:49.899Z,72.59
2024-03-12T02:31:49.768Z,69.96
2024-03-12T02:32:50.250Z,70.03
2024-03-12T02:33:49.753Z,74.26
2024-03-12T02:34:49.703Z,69.42
2024-03-12T02:35:49.647Z,68.20
2024-03-12T02:36:49.700Z,70.51
2024-03-12T02:37:49.715Z,67.68
2024-03-12T02:38:49.631Z,66.71
2024-03-12T02:39:49.715Z,70.17
2024-03-12T02:40:49.651Z,73.58
2024-03-12T02:41:49.631Z,70.63
2024-03-12T02:42:49.681Z,58.72
2024-03-12T02:43:49.589Z,72.95
2024-03-12T02:44:49.587Z,70.17
2024-03-12T02:45:49.571Z,72.18
2024-03-12T02:46:49.550Z,70.74
2024-03-12T02:47:49.640Z,62.00
2024-03-12T02:48:49.567Z,52.03
2024-03-12T02:49:49.534Z,68.84
2024-03-12T02:50:49.509Z,70.47
2024-03-12T02:51:49.510Z,70.26
2024-03-12T02:52:49.501Z,66.29
2024-03-12T02:53:49.502Z,63.90
2024-03-12T02:54:50.520Z,74.49
2024-03-12T02:55:49.437Z,59.11
2024-03-12T02:56:49.673Z,61.75
2024-03-12T02:57:49.475Z,68.51
2024-03-12T02:58:49.444Z,67.33
2024-03-12T02:59:49.433Z,73.12
2024-03-12T03:00:49.523Z,59.41
2024-03-12T03:01:49.443Z,70.55
2024-03-12T03:02:49.377Z,53.35
2024-03-12T03:03:49.418Z,54.74
2024-03-12T03:04:50.093Z,68.22
2024-03-12T03:05:49.352Z,53.65
2024-03-12T03:06:49.378Z,58.66
2024-03-12T03:07:49.391Z,58.07
2024-03-12T03:08:49.350Z,69.98
2024-03-12T03:09:49.367Z,68.03
2024-03-12T03:10:49.366Z,69.63
2024-03-12T03:11:49.299Z,68.71
2024-03-12T03:12:50.178Z,67.45
2024-03-12T03:13:49.260Z,66.13
2024-03-12T03:14:49.244Z,71.41
2024-03-12T03:15:49.318Z,71.93
2024-03-12T03:16:49.252Z,69.60
2024-03-12T03:17:49.251Z,69.65
2024-03-12T03:18:49.270Z,72.00
2024-03-12T03:19:49.210Z,63.02
2024-03-12T03:20:49.195Z,67.80
2024-03-12T03:21:49.217Z,69.09
2024-03-12T03:22:49.197Z,75.35
2024-03-12T03:23:49.193Z,62.00
2024-03-12T03:24:49.169Z,72.52
2024-03-12T03:25:49.142Z,70.69
2024-03-12T03:26:49.117Z,71.16
2024-03-12T03:27:49.159Z,73.33
2024-03-12T03:28:49.101Z,67.75
2024-03-12T03:29:49.096Z,67.65
2024-03-12T03:30:49.151Z,69.66
2024-03-12T03:31:49.074Z,70.31
2024-03-12T03:32:49.458Z,69.85
2024-03-12T03:33:49.185Z,68.13
2024-03-12T03:34:49.026Z,75.24
2024-03-12T03:35:49.021Z,72.35
2024-03-12T03:36:49.126Z,74.54
2024-03-12T03:37:49.038Z,73.33
2024-03-12T03:38:49.016Z,67.30
2024-03-12T03:39:49.091Z,71.76
2024-03-12T03:40:49.006Z,73.68
2024-03-12T03:41:48.989Z,72.82
2024-03-12T03:42:49.009Z,75.95
2024-03-12T03:43:48.977Z,69.71
2024-03-12T03:44:48.954Z,71.59
2024-03-12T03:45:49.020Z,74.46
2024-03-12T03:46:48.890Z,72.94
2024-03-12T03:47:49.503Z,69.89
2024-03-12T03:48:48.908Z,66.33
2024-03-12T03:49:48.855Z,72.95
2024-03-12T03:50:48.862Z,71.30
2024-03-12T03:51:48.850Z,68.90
2024-03-12T03:52:48.830Z,67.77
2024-03-12T03:53:48.834Z,68.32
2024-03-12T03:54:48.836Z,75.04
2024-03-12T03:55:48.801Z,66.49
2024-03-12T03:56:48.800Z,71.78
2024-03-12T03:57:48.927Z,71.90
2024-03-12T03:58:48.805Z,73.30
2024-03-12T03:59:48.773Z,71.60
2024-03-12T04:00:48.795Z,75.15
2024-03-12T04:01:48.760Z,75.19
2024-03-12T04:02:48.742Z,72.29
2024-03-12T04:03:48.831Z,71.45
2024-03-12T04:04:48.706Z,70.31
2024-03-12T04:05:48.695Z,74.07
2024-03-12T04:06:50.364Z,71.22
2024-03-12T04:07:48.665Z,73.49
2024-03-12T04:08:48.688Z,71.79
2024-03-12T04:09:48.724Z,72.70
2024-03-12T04:10:48.754Z,72.73
2024-03-12T04:11:48.658Z,75.04
2024-03-12T04:12:48.736Z,72.96
2024-03-12T04:13:48.591Z,74.55
2024-03-12T04:14:48.586Z,74.46
2024-03-12T04:15:48.648Z,72.33
2024-03-12T04:16:48.590Z,74.73
2024-03-12T04:17:48.671Z,74.15
2024-03-12T04:18:48.606Z,72.29
2024-03-12T04:19:48.564Z,73.35
2024-03-12T04:20:48.544Z,73.83
2024-03-12T04:21:48.586Z,75.22
2024-03-12T04:22:48.512Z,74.74
2024-03-12T04:23:48.493Z,73.96
2024-03-12T04:24:48.559Z,73.87
2024-03-12T04:25:48.490Z,75.76
2024-03-12T04:26:48.472Z,74.87
2024-03-12T04:27:48.502Z,75.84
2024-03-12T04:28:48.450Z,75.29
2024-03-12T04:29:48.466Z,75.21
2024-03-12T04:30:48.482Z,75.70
2024-03-12T04:31:48.431Z,73.20
2024-03-12T04:32:48.690Z,75.41
2024-03-12T04:33:48.472Z,75.76
2024-03-12T04:34:48.370Z,75.79
2024-03-12T04:35:48.375Z,74.72
2024-03-12T04:36:48.403Z,75.26
2024-03-12T04:37:48.416Z,77.00
2024-03-12T04:38:48.373Z,76.68
2024-03-12T04:39:48.515Z,75.84
2024-03-12T04:40:48.310Z,76.90
2024-03-12T04:41:48.333Z,75.83
2024-03-12T04:42:48.371Z,75.03
2024-03-12T04:43:48.297Z,76.00
2024-03-12T04:44:48.311Z,77.29
2024-03-12T04:45:48.328Z,75.88
2024-03-12T04:46:48.274Z,75.22
2024-03-12T04:47:50.177Z,77.52
2024-03-12T04:48:48.268Z,77.59
2024-03-12T04:49:48.239Z,74.15
2024-03-12T04:50:48.215Z,77.18
2024-03-12T04:51:48.233Z,76.41
2024-03-12T04:52:48.204Z,74.36
2024-03-12T04:53:48.211Z,75.92
2024-03-12T04:54:48.235Z,76.14
2024-03-12T04:55:48.171Z,75.40
2024-03-12T04:56:48.203Z,74.78
2024-03-12T04:57:49.163Z,73.60
2024-03-12T04:58:48.210Z,74.68
2024-03-12T04:59:48.172Z,76.72
2024-03-12T05:00:48.244Z,74.83
2024-03-12T05:01:48.193Z,74.49
2024-03-12T05:02:48.096Z,76.30
2024-03-12T05:03:48.113Z,76.01
2024-03-12T05:04:48.084Z,75.01
2024-03-12T05:05:48.048Z,75.95
2024-03-12T05:06:48.102Z,76.03
2024-03-12T05:07:48.051Z,77.46
2024-03-12T05:08:48.014Z,76.14
2024-03-12T05:09:48.042Z,75.90
2024-03-12T05:10:48.047Z,77.91
2024-03-12T05:11:48.027Z,77.16
2024-03-12T05:12:48.012Z,76.54
2024-03-12T05:13:47.983Z,78.97
2024-03-12T05:14:47.961Z,75.22
2024-03-12T05:15:47.961Z,75.58
2024-03-12T05:16:47.939Z,77.75
2024-03-12T05:17:47.949Z,77.33
2024-03-12T05:18:47.961Z,78.34
2024-03-12T05:19:47.896Z,77.35
2024-03-12T05:20:47.896Z,78.73
2024-03-12T05:21:47.909Z,77.15
2024-03-12T05:22:47.874Z,77.80
2024-03-12T05:23:47.889Z,77.28
2024-03-12T05:24:47.870Z,77.80
2024-03-12T05:25:47.976Z,77.99
2024-03-12T05:26:47.845Z,78.10
2024-03-12T05:27:47.848Z,78.75
2024-03-12T05:28:47.812Z,76.88
2024-03-12T05:29:47.797Z,77.98
2024-03-12T05:30:47.820Z,80.00
2024-03-12T05:31:47.795Z,78.05
2024-03-12T05:32:47.838Z,77.25
2024-03-12T05:33:47.771Z,79.84
2024-03-12T05:34:47.737Z,79.70
2024-03-12T05:35:47.757Z,78.46
2024-03-12T05:36:47.798Z,79.21
2024-03-12T05:37:47.722Z,79.91
2024-03-12T05:38:47.700Z,79.02
2024-03-12T05:39:47.773Z,78.92
2024-03-12T05:40:47.768Z,78.64
2024-03-12T05:41:47.686Z,77.44
2024-03-12T05:42:47.733Z,77.84
2024-03-12T05:43:50.276Z,79.10
2024-03-12T05:44:48.651Z,80.10
2024-03-12T05:45:47.726Z,80.17
2024-03-12T05:46:47.778Z,78.78
2024-03-12T05:47:47.726Z,78.38
2024-03-12T05:48:47.603Z,78.89
2024-03-12T05:49:47.612Z,76.99
2024-03-12T05:50:47.593Z,77.83
2024-03-12T05:51:47.622Z,76.89
2024-03-12T05:52:47.577Z,78.48
2024-03-12T05:53:47.546Z,76.83
2024-03-12T05:54:47.598Z,76.96
2024-03-12T05:55:47.558Z,78.62
2024-03-12T05:56:47.516Z,76.95
2024-03-12T05:57:47.540Z,78.49
2024-03-12T05:58:47.959Z,76.54
2024-03-12T05:59:47.470Z,75.72
2024-03-12T06:00:47.483Z,77.95
2024-03-12T06:01:47.513Z,77.43
2024-03-12T06:02:47.480Z,75.93
2024-03-12T06:03:47.651Z,77.08
2024-03-12T06:04:47.458Z,78.43
2024-03-12T06:05:47.444Z,77.63
2024-03-12T06:06:47.403Z,76.28
2024-03-12T06:07:47.400Z,77.96
2024-03-12T06:08:47.423Z,78.12
2024-03-12T06:09:47.417Z,78.74
2024-03-12T06:10:47.366Z,76.70
2024-03-12T06:11:47.385Z,78.53
2024-03-12T06:12:47.370Z,78.97
2024-03-12T06:13:47.421Z,77.47
2024-03-12T06:14:47.331Z,79.30
2024-03-12T06:15:47.512Z,76.73
2024-03-12T06:16:47.297Z,79.61
2024-03-12T06:17:48.139Z,77.66
2024-03-12T06:18:47.389Z,78.81
2024-03-12T06:19:47.391Z,77.46
2024-03-12T06:20:47.261Z,78.78
2024-03-12T06:21:47.296Z,76.82
2024-03-12T06:22:47.212Z,77.06
2024-03-12T06:23:47.198Z,78.11
2024-03-12T06:24:47.260Z,79.20
2024-03-12T06:25:47.244Z,78.57
2024-03-12T06:26:47.181Z,77.94
2024-03-12T06:27:47.186Z,77.75
2024-03-12T06:28:47.220Z,78.75
2024-03-12T06:29:47.163Z,78.01
2024-03-12T06:30:47.271Z,77.08
2024-03-12T06:31:47.167Z,77.49
2024-03-12T06:32:47.134Z,78.39
2024-03-12T06:33:47.161Z,79.27
2024-03-12T06:34:48.751Z,78.72
2024-03-12T06:35:48.106Z,77.88
2024-03-12T06:36:47.139Z,79.52
2024-03-12T06:37:47.081Z,78.52
2024-03-12T06:38:47.062Z,80.10
2024-03-12T06:39:47.130Z,78.42
2024-03-12T06:40:47.076Z,78.61
2024-03-12T06:41:47.028Z,76.15
2024-03-12T06:42:47.040Z,79.29
2024-03-12T06:43:47.039Z,78.72
2024-03-12T06:44:46.988Z,77.54
2024-03-12T06:45:47.121Z,78.66
2024-03-12T06:46:46.985Z,78.51
2024-03-12T06:47:47.014Z,79.35
2024-03-12T06:48:46.968Z,78.25
2024-03-12T06:49:46.945Z,77.25
2024-03-12T06:50:47.230Z,79.06
2024-03-12T06:51:47.016Z,78.88
2024-03-12T06:52:46.942Z,77.76
2024-03-12T06:53:46.915Z,79.23
2024-03-12T06:54:46.916Z,77.36
2024-03-12T06:55:47.033Z,78.53
2024-03-12T06:56:47.021Z,77.73
2024-03-12T06:57:46.942Z,77.16
2024-03-12T06:58:47.019Z,77.77
2024-03-12T06:59:46.847Z,76.99
2024-03-12T07:00:46.874Z,78.24
2024-03-12T07:01:46.899Z,78.85
2024-03-12T07:02:46.935Z,76.49
2024-03-12T07:03:49.093Z,78.50
2024-03-12T07:04:46.808Z,76.56
2024-03-12T07:05:46.774Z,76.71
2024-03-12T07:06:46.810Z,76.92
2024-03-12T07:07:46.780Z,76.56
2024-03-12T07:08:46.774Z,78.39
2024-03-12T07:09:46.786Z,77.26
2024-03-12T07:10:47.144Z,77.94
2024-03-12T07:11:46.716Z,79.26
2024-03-12T07:12:46.739Z,74.92
2024-03-12T07:13:46.695Z,75.75
2024-03-12T07:14:46.843Z,76.96
2024-03-12T07:15:46.795Z,77.54
2024-03-12T07:16:46.683Z,77.58
2024-03-12T07:17:46.690Z,78.22
2024-03-12T07:18:46.655Z,77.19
2024-03-12T07:19:46.672Z,76.93
2024-03-12T07:20:47.599Z,78.29
2024-03-12T07:21:46.635Z,76.58
2024-03-12T07:22:47.065Z,74.48
2024-03-12T07:23:46.715Z,76.82
2024-03-12T07:24:46.609Z,76.53
2024-03-12T07:25:46.586Z,77.21
2024-03-12T07:26:46.540Z,77.97
2024-03-12T07:27:46.633Z,76.25
2024-03-12T07:28:46.579Z,75.74
2024-03-12T07:29:46.503Z,76.08
2024-03-12T07:30:46.589Z,77.53
2024-03-12T07:31:46.580Z,75.74
2024-03-12T07:32:46.542Z,76.50
2024-03-12T07:33:46.512Z,79.44
2024-03-12T07:34:46.466Z,75.94
2024-03-12T07:35:46.448Z,76.67
2024-03-12T07:36:46.475Z,77.37
2024-03-12T07:37:46.459Z,77.48
2024-03-12T07:38:46.423Z,76.54
2024-03-12T07:39:46.405Z,77.17
2024-03-12T07:40:46.403Z,75.62
2024-03-12T07:41:46.392Z,76.43
2024-03-12T07:42:46.416Z,75.14
2024-03-12T07:43:46.385Z,75.50
2024-03-12T07:44:46.339Z,77.79
2024-03-12T07:45:46.356Z,76.54
2024-03-12T07:46:46.306Z,75.92
2024-03-12T07:47:46.363Z,76.55
2024-03-12T07:48:46.400Z,75.54
2024-03-12T07:49:46.301Z,74.35
2024-03-12T07:50:46.313Z,77.20
2024-03-12T07:51:46.280Z,76.86
2024-03-12T07:52:46.260Z,75.80
2024-03-12T07:53:46.273Z,77.33
2024-03-12T07:54:46.272Z,76.86
2024-03-12T07:55:46.217Z,77.07
2024-03-12T07:56:46.285Z,77.54
2024-03-12T07:57:46.282Z,76.03
2024-03-12T07:58:46.185Z,77.19
2024-03-12T07:59:46.183Z,77.18
2024-03-12T08:00:47.188Z,77.59
2024-03-12T08:01:46.192Z,75.13
2024-03-12T08:02:46.133Z,75.39
2024-03-12T08:03:46.284Z,75.70
2024-03-12T08:04:46.137Z,75.07
2024-03-12T08:05:46.132Z,76.92
2024-03-12T08:06:46.225Z,76.68
2024-03-12T08:07:46.236Z,75.69
2024-03-12T08:08:46.161Z,75.18
2024-03-12T08:09:46.150Z,75.98
2024-03-12T08:10:46.048Z,76.45
2024-03-12T08:11:46.086Z,75.19
2024-03-12T08:12:46.054Z,75.54
2024-03-12T08:13:46.056Z,75.07
2024-03-12T08:14:46.064Z,75.39
2024-03-12T08:15:46.059Z,76.09
2024-03-12T08:16:46.040Z,77.12
2024-03-12T08:17:48.209Z,76.15
2024-03-12T08:18:47.055Z,75.37
2024-03-12T08:19:46.207Z,73.78
2024-03-12T08:20:45.971Z,75.93
2024-03-12T08:21:46.114Z,75.68
2024-03-12T08:22:45.947Z,76.58
2024-03-12T08:23:45.957Z,76.55
2024-03-12T08:24:46.056Z,72.10
2024-03-12T08:25:55.204Z,76.29
2024-03-12T08:26:47.922Z,76.85
2024-03-12T08:27:45.931Z,74.09
2024-03-12T08:28:45.839Z,70.29
2024-03-12T08:29:45.885Z,71.36
2024-03-12T08:30:45.943Z,76.93
2024-03-12T08:31:51.703Z,73.43
2024-03-12T08:32:46.868Z,72.89
2024-03-12T08:33:45.883Z,73.56
2024-03-12T08:34:45.789Z,76.52
2024-03-12T08:35:45.904Z,75.47
2024-03-12T08:36:45.890Z,74.22
2024-03-12T08:37:45.843Z,75.17
2024-03-12T08:38:45.845Z,77.64
2024-03-12T08:39:45.894Z,75.86
2024-03-12T08:40:45.811Z,76.49
2024-03-12T08:41:45.767Z,74.70
2024-03-12T08:42:54.021Z,76.30
2024-03-12T08:43:46.755Z,73.98
2024-03-12T08:44:45.727Z,75.89
2024-03-12T08:45:45.731Z,74.43
2024-03-12T08:46:45.702Z,75.10
2024-03-12T08:47:45.694Z,75.47
2024-03-12T08:48:45.685Z,75.09
2024-03-12T08:49:45.662Z,72.70
2024-03-12T08:50:45.658Z,76.07
2024-03-12T08:51:45.752Z,73.29
2024-03-12T08:52:45.620Z,74.59
2024-03-12T08:53:45.603Z,74.39
2024-03-12T08:54:45.715Z,75.68
2024-03-12T08:55:45.622Z,76.22
2024-03-12T08:56:45.609Z,75.95
2024-03-12T08:57:45.618Z,73.36
2024-03-12T08:58:45.571Z,76.09
2024-03-12T08:59:45.547Z,73.82
2024-03-12T09:00:45.695Z,76.28
2024-03-12T09:01:45.912Z,77.64
2024-03-12T09:02:45.515Z,76.41
2024-03-12T09:03:47.056Z,75.77
2024-03-12T09:04:46.590Z,75.70
2024-03-12T09:05:45.513Z,76.87
2024-03-12T09:06:45.538Z,77.02
2024-03-12T09:07:45.449Z,78.27
2024-03-12T09:08:45.441Z,76.30
2024-03-12T09:09:45.627Z,75.25
2024-03-12T09:10:45.505Z,73.85
2024-03-12T09:11:45.449Z,73.79
2024-03-12T09:12:45.437Z,75.42
2024-03-12T09:13:45.393Z,74.87
2024-03-12T09:14:45.403Z,75.90
2024-03-12T09:15:45.421Z,75.65
2024-03-12T09:16:45.439Z,77.27
2024-03-12T09:17:45.374Z,74.58
2024-03-12T09:18:45.454Z,74.35
2024-03-12T09:19:45.328Z,73.66
2024-03-12T09:20:45.325Z,74.34
2024-03-12T09:21:45.322Z,75.74
2024-03-12T09:22:45.279Z,73.54
2024-03-12T09:23:53.206Z,75.94
2024-03-12T09:24:46.327Z,74.72
2024-03-12T09:25:45.274Z,75.19
2024-03-12T09:26:45.346Z,75.28
2024-03-12T09:27:45.248Z,77.31
2024-03-12T09:28:46.486Z,77.10
2024-03-12T09:29:45.256Z,78.29
2024-03-12T09:30:45.266Z,75.65
2024-03-12T09:31:45.212Z,75.65
2024-03-12T09:32:45.282Z,75.20
2024-03-12T09:33:45.206Z,78.00
2024-03-12T09:34:45.184Z,77.64
2024-03-12T09:35:45.171Z,75.96
2024-03-12T09:36:45.187Z,75.79
2024-03-12T09:37:45.194Z,77.48
2024-03-12T09:38:45.460Z,75.73
2024-03-12T09:39:45.220Z,74.00
2024-03-12T09:40:45.140Z,75.27
2024-03-12T09:41:45.085Z,74.27
2024-03-12T09:42:45.159Z,75.72
2024-03-12T09:43:45.331Z,74.71
2024-03-12T09:44:45.049Z,75.05
2024-03-12T09:45:45.129Z,75.76
2024-03-12T09:46:45.031Z,75.32
2024-03-12T09:47:45.016Z,73.78
2024-03-12T09:48:45.068Z,75.03
2024-03-12T09:49:45.052Z,77.47
2024-03-12T09:50:44.977Z,78.11
2024-03-12T09:51:45.117Z,74.59
2024-03-12T09:52:45.000Z,76.71
2024-03-12T09:53:44.982Z,75.07
2024-03-12T09:54:44.992Z,77.44
2024-03-12T09:55:44.974Z,76.71
2024-03-12T09:56:44.908Z,73.91
2024-03-12T09:57:45.648Z,76.07
2024-03-12T09:58:45.029Z,76.92
2024-03-12T09:59:44.917Z,77.10
2024-03-12T10:00:44.930Z,75.24
2024-03-12T10:01:44.992Z,74.11
2024-03-12T10:02:44.886Z,74.90
2024-03-12T10:03:44.933Z,75.40
2024-03-12T10:04:44.843Z,74.81
2024-03-12T10:05:44.879Z,75.57
2024-03-12T10:06:44.848Z,75.83
2024-03-12T10:07:44.811Z,76.47
2024-03-12T10:08:44.847Z,75.94
2024-03-12T10:09:44.815Z,75.17
2024-03-12T10:10:44.861Z,76.12
2024-03-12T10:11:44.787Z,75.94
2024-03-12T10:12:44.796Z,74.09
2024-03-12T10:13:44.788Z,74.07
2024-03-12T10:14:44.763Z,75.58
2024-03-12T10:15:44.752Z,74.31
2024-03-12T10:16:44.749Z,76.16
2024-03-12T10:17:44.753Z,76.08
2024-03-12T10:18:44.685Z,76.23
2024-03-12T10:19:44.764Z,76.35
2024-03-12T10:20:44.693Z,75.31
2024-03-12T10:21:44.708Z,75.68
2024-03-12T10:22:44.712Z,74.05
2024-03-12T10:23:44.703Z,75.27
2024-03-12T10:24:44.686Z,76.37
2024-03-12T10:25:44.619Z,74.03
2024-03-12T10:26:44.638Z,72.96
2024-03-12T10:27:51.260Z,76.09
2024-03-12T10:28:47.189Z,75.42
2024-03-12T10:29:44.641Z,74.95
2024-03-12T10:30:44.631Z,75.05
2024-03-12T10:31:44.650Z,73.71
2024-03-12T10:32:44.598Z,77.62
2024-03-12T10:33:44.559Z,77.23
2024-03-12T10:34:44.566Z,74.36
2024-03-12T10:35:44.547Z,75.98
2024-03-12T10:36:44.572Z,74.67
2024-03-12T10:37:44.495Z,72.15
2024-03-12T10:38:44.512Z,74.07
2024-03-12T10:39:44.489Z,74.03
2024-03-12T10:40:44.491Z,73.02
2024-03-12T10:41:44.559Z,72.80
2024-03-12T10:42:44.499Z,72.56
2024-03-12T10:43:44.455Z,75.44
2024-03-12T10:44:44.440Z,75.84
2024-03-12T10:45:44.473Z,76.26
2024-03-12T10:46:44.880Z,74.73
2024-03-12T10:47:44.488Z,74.81
2024-03-12T10:48:44.471Z,75.79
2024-03-12T10:49:44.404Z,73.57
2024-03-12T10:50:44.379Z,75.57
2024-03-12T10:51:44.572Z,74.38
2024-03-12T10:52:44.369Z,74.55
2024-03-12T10:53:44.408Z,74.67
2024-03-12T10:54:48.461Z,74.43
2024-03-12T10:55:46.558Z,74.89
2024-03-12T10:56:44.365Z,74.19
2024-03-12T10:57:44.474Z,75.64
2024-03-12T10:58:44.308Z,72.93
2024-03-12T10:59:44.370Z,72.04
2024-03-12T11:00:44.364Z,76.12
2024-03-12T11:01:44.368Z,75.05
2024-03-12T11:02:44.303Z,75.53
2024-03-12T11:03:44.428Z,75.13
2024-03-12T11:04:44.243Z,73.94
2024-03-12T11:05:44.259Z,72.33
2024-03-12T11:06:44.995Z,74.53
2024-03-12T11:07:44.242Z,74.72
2024-03-12T11:08:44.205Z,76.83
2024-03-12T11:09:44.282Z,76.36
2024-03-12T11:10:44.229Z,75.07
2024-03-12T11:11:44.174Z,74.44
2024-03-12T11:12:44.255Z,75.63
2024-03-12T11:13:44.134Z,76.26
2024-03-12T11:14:44.154Z,74.33
2024-03-12T11:15:44.252Z,75.96
2024-03-12T11:16:44.156Z,73.73
2024-03-12T11:17:44.150Z,76.25
2024-03-12T11:18:44.467Z,73.76
2024-03-12T11:19:44.102Z,75.29
2024-03-12T11:20:44.096Z,74.07
2024-03-12T11:21:44.123Z,75.28
2024-03-12T11:22:45.027Z,73.21
2024-03-12T11:23:44.069Z,74.97
2024-03-12T11:24:44.330Z,72.09
2024-03-12T11:25:45.290Z,73.97
2024-03-12T11:26:44.005Z,76.47
2024-03-12T11:27:44.058Z,73.80
2024-03-12T11:28:43.993Z,74.64
2024-03-12T11:29:44.038Z,76.35
2024-03-12T11:30:44.038Z,76.13
2024-03-12T11:31:43.966Z,74.44
2024-03-12T11:32:44.011Z,76.70
2024-03-12T11:33:44.033Z,75.88
2024-03-12T11:34:44.941Z,74.54
2024-03-12T11:35:43.966Z,76.01
2024-03-12T11:36:43.960Z,76.00
2024-03-12T11:37:43.894Z,73.97
2024-03-12T11:38:43.915Z,74.84
2024-03-12T11:39:43.953Z,76.05
2024-03-12T11:40:43.899Z,74.71
2024-03-12T11:41:43.850Z,75.24
2024-03-12T11:42:43.964Z,75.44
2024-03-12T11:43:43.855Z,75.03
2024-03-12T11:44:43.836Z,72.93
2024-03-12T11:45:43.923Z,74.30
2024-03-12T11:46:43.866Z,74.75
2024-03-12T11:47:43.980Z,75.43
2024-03-12T11:48:43.836Z,74.27
2024-03-12T11:49:43.796Z,75.25
2024-03-12T11:50:43.858Z,75.41
2024-03-12T11:51:43.812Z,74.56
2024-03-12T11:52:43.782Z,74.08
2024-03-12T11:53:43.765Z,76.74
2024-03-12T11:54:43.756Z,75.02
2024-03-12T11:55:43.762Z,74.96
2024-03-12T11:56:43.775Z,74.71
2024-03-12T11:57:43.754Z,73.50
2024-03-12T11:58:43.693Z,74.41
2024-03-12T11:59:43.724Z,76.55
2024-03-12T12:00:43.794Z,75.45
2024-03-12T12:01:43.729Z,74.68
2024-03-12T12:02:43.739Z,75.15
2024-03-12T12:03:43.683Z,75.01
2024-03-12T12:04:44.463Z,75.84
2024-03-12T12:05:43.622Z,75.48
2024-03-12T12:06:43.676Z,74.42
2024-03-12T12:07:43.813Z,75.65
2024-03-12T12:08:50.386Z,74.64
2024-03-12T12:09:44.639Z,74.42
2024-03-12T12:10:43.626Z,75.95
2024-03-12T12:11:43.602Z,76.21
2024-03-12T12:12:43.600Z,75.21
2024-03-12T12:13:43.530Z,76.81
2024-03-12T12:14:43.574Z,76.97
2024-03-12T12:15:43.580Z,74.68
2024-03-12T12:16:43.516Z,77.61
2024-03-12T12:17:43.511Z,77.26
2024-03-12T12:18:43.527Z,74.78
2024-03-12T12:19:43.726Z,76.12
2024-03-12T12:20:43.527Z,77.18
2024-03-12T12:21:43.506Z,75.88
2024-03-12T12:22:43.502Z,77.49
2024-03-12T12:23:43.482Z,75.85
2024-03-12T12:24:43.503Z,76.01
2024-03-12T12:25:43.437Z,77.82
2024-03-12T12:26:44.415Z,76.41
2024-03-12T12:27:43.396Z,77.21
2024-03-12T12:28:43.423Z,77.23
2024-03-12T12:29:43.393Z,75.93
2024-03-12T12:30:43.444Z,77.46
2024-03-12T12:31:43.640Z,75.96
2024-03-12T12:32:43.424Z,77.09
2024-03-12T12:33:43.467Z,75.84
2024-03-12T12:34:43.400Z,76.10
2024-03-12T12:35:43.353Z,77.13
2024-03-12T12:36:43.516Z,74.76
2024-03-12T12:37:43.320Z,74.44
2024-03-12T12:38:44.498Z,77.17
2024-03-12T12:39:51.884Z,74.69
2024-03-12T12:40:45.331Z,76.96
2024-03-12T12:41:43.289Z,76.62
2024-03-12T12:42:43.298Z,76.78
2024-03-12T12:43:43.279Z,74.54
2024-03-12T12:44:43.272Z,78.04
2024-03-12T12:45:43.295Z,78.37
2024-03-12T12:46:43.251Z,77.68
2024-03-12T12:47:43.325Z,76.40
2024-03-12T12:48:44.166Z,76.73
2024-03-12T12:49:43.213Z,74.95
2024-03-12T12:50:43.179Z,76.99
2024-03-12T12:51:43.390Z,77.38
2024-03-12T12:52:43.179Z,76.28